Time;durP1;ratioP1;P1;durP2;ratioP2;P2;SDS_P1;SDS_P2;PMS_P1;PMS_P2;Temp;Humidity;BMP_temperature;BMP_pressure;BME280_temperature;BME280_humidity;BME280_pressure;Samples;Min_cycle;Max_cycle;Signal;HPM_P1;HPM_P2
2021/08/02 00:01:41;;;;;;;6.60;3.17;;;;;;;;;;5098090;28;20052;-74
2021/08/02 00:04:09;;;;;;;7.75;2.85;;;;;;;;;;5116242;28;20024;-71
2021/08/02 00:07:01;;;;;;;4.00;3.33;;;665.60;1792.00;;;;;;5116016;28;20585;-70
2021/08/02 00:09:36;;;;;;;8.45;3.45;;;640.70;1766.40;;;;;;5116455;28;20422;-70
2021/08/02 00:12:10;;;;;;;6.72;3.22;;;640.70;1792.00;;;;;;5116266;28;20356;-70
2021/08/02 00:14:40;;;;;;;6.28;3.60;;;640.70;1792.00;;;;;;5116104;28;20024;-70
2021/08/02 00:17:06;;;;;;;5.35;3.45;;;;;;;;;;5116019;28;20019;-79
2021/08/02 00:19:32;;;;;;;5.43;3.03;;;640.80;1792.00;;;;;;5115838;28;20114;-71
2021/08/02 00:21:58;;;;;;;5.65;3.30;;;640.50;1792.00;;;;;;5115909;28;20423;-78
2021/08/02 00:24:25;;;;;;;5.30;3.53;;;640.50;1792.00;;;;;;5115891;28;20019;-71
2021/08/02 00:26:53;;;;;;;3.63;2.72;;;640.20;1792.00;;;;;;5097441;28;20092;-79
2021/08/02 00:29:21;;;;;;;5.60;2.83;;;640.20;1792.00;;;;;;5115942;28;20022;-78
2021/08/02 00:31:47;;;;;;;5.97;2.72;;;640.30;1766.40;;;;;;5115982;28;20103;-71
2021/08/02 00:34:13;;;;;;;3.85;2.53;;;640.30;1740.80;;;;;;5115677;28;20016;-71
2021/08/02 00:37:01;;;;;;;3.45;2.30;;;640.10;1766.40;;;;;;5115623;28;20388;-70
2021/08/02 00:39:32;;;;;;;4.18;2.78;;;640.20;1740.80;;;;;;5114885;28;20050;-71
2021/08/02 00:42:20;;;;;;;2.97;2.38;;;640.20;1715.20;;;;;;5115498;28;20020;-71
2021/08/02 00:44:57;;;;;;;2.95;2.05;;;640.20;1715.20;;;;;;5115163;28;20049;-70
2021/08/02 00:47:28;;;;;;;3.20;2.10;;;640.10;1715.20;;;;;;5115571;28;20020;-71
2021/08/02 00:50:16;;;;;;;4.15;2.10;;;640.10;1715.20;;;;;;5115584;28;20058;-70
2021/08/02 00:52:50;;;;;;;3.85;2.88;;;640.10;1715.20;;;;;;5096470;28;20027;-71
2021/08/02 00:55:18;;;;;;;3.42;2.10;;;640.00;1715.20;;;;;;5115232;28;20418;-71
2021/08/02 00:57:46;;;;;;;2.95;2.00;;;640.10;1715.20;;;;;;5115334;28;20023;-71
2021/08/02 01:00:15;;;;;;;3.78;2.25;;;640.00;1715.20;;;;;;5115076;28;20062;-71
2021/08/02 01:02:44;;;;;;;5.10;2.30;;;640.00;1715.20;;;;;;5115096;28;20020;-71
2021/08/02 01:05:11;;;;;;;5.60;2.65;;;615.30;1740.80;;;;;;5115067;28;20030;-71
2021/08/02 01:07:44;;;;;;;5.75;2.25;;;615.30;1740.80;;;;;;5114826;28;20097;-70
2021/08/02 01:10:11;;;;;;;5.00;2.40;;;615.20;1740.80;;;;;;5115053;28;20026;-77
2021/08/02 01:12:41;;;;;;;4.65;2.38;;;615.20;1740.80;;;;;;5114916;28;20476;-71
2021/08/02 01:15:08;;;;;;;5.03;2.60;;;615.20;1715.20;;;;;;5096579;28;20066;-71
2021/08/02 01:17:34;;;;;;;5.00;2.40;;;615.00;1766.40;;;;;;5115014;28;20506;-70
2021/08/02 01:20:03;;;;;;;4.47;2.78;;;615.10;1740.80;;;;;;5114662;28;20032;-71
2021/08/02 01:22:30;;;;;;;5.30;2.75;;;615.10;1740.80;;;;;;5114692;28;20016;-79
2021/08/02 01:24:56;;;;;;;4.63;2.33;;;615.00;1766.40;;;;;;5114677;28;20455;-71
2021/08/02 01:27:34;;;;;;;7.15;3.17;;;614.90;1766.40;;;;;;5114535;28;20020;-73
2021/08/02 01:30:13;;;;;;;3.88;2.55;;;614.90;1792.00;;;;;;5096324;28;20084;-70
2021/08/02 01:32:39;;;;;;;5.72;3.20;;;614.90;1766.40;;;;;;5114756;28;20079;-70
2021/08/02 01:35:05;;;;;;;4.22;2.70;;;614.90;1766.40;;;;;;5114436;28;20050;-70
2021/08/02 01:37:31;;;;;;;4.97;2.70;;;614.60;1792.00;;;;;;5114404;28;20102;-70
2021/08/02 01:39:57;;;;;;;3.38;2.50;;;614.50;1817.60;;;;;;5114748;28;20106;-70
2021/08/02 01:42:23;;;;;;;6.60;2.63;;;614.40;1817.60;;;;;;5114384;28;20027;-70
2021/08/02 01:44:49;;;;;;;4.55;2.42;;;614.50;1817.60;;;;;;5114321;28;20027;-70
2021/08/02 01:48:01;;;;;;;5.57;2.67;;;614.60;1792.00;;;;;;5114292;28;20046;-70
2021/08/02 01:50:49;;;;;;;4.85;2.17;;;614.60;1792.00;;;;;;5114211;28;20024;-71
2021/08/02 01:53:54;;;;;;;4.25;2.65;;;614.70;1766.40;;;;;;5095970;28;20077;-71
2021/08/02 01:56:27;;;;;;;7.72;2.80;;;614.50;1766.40;;;;;;5111708;28;20042;-74
2021/08/02 01:59:15;;;;;;;3.50;2.28;;;614.60;1766.40;;;;;;5114021;28;20108;-71
2021/08/02 02:01:46;;;;;;;2.63;2.03;;;614.50;1766.40;;;;;;5114086;28;20032;-70
2021/08/02 02:04:14;;;;;;;5.88;2.55;;;614.40;1766.40;;;;;;5114072;28;20072;-70
2021/08/02 02:06:44;;;;;;;2.10;1.90;;;614.40;1766.40;;;;;;5113892;28;20047;-71
2021/08/02 02:09:14;;;;;;;3.78;1.92;;;614.40;1792.00;;;;;;5113852;28;20384;-71
2021/08/02 02:11:44;;;;;;;3.03;1.98;;;589.40;1817.60;;;;;;5113968;28;20055;-70
2021/08/02 02:14:11;;;;;;;2.70;2.38;;;589.60;1817.60;;;;;;5113885;28;20073;-79
2021/08/02 02:16:41;;;;;;;2.95;2.20;;;589.40;1817.60;;;;;;5113818;28;20106;-78
2021/08/02 02:19:10;;;;;;;2.00;1.80;;;589.40;1817.60;;;;;;5113713;28;20035;-70
2021/08/02 02:21:36;;;;;;;7.80;2.83;;;589.30;1817.60;;;;;;5095579;28;20537;-70
2021/08/02 02:24:03;;;;;;;4.82;2.33;;;589.20;1843.20;;;;;;5113792;28;20395;-72
2021/08/02 02:26:32;;;;;;;3.20;2.00;;;589.40;1817.60;;;;;;5113741;28;20019;-70
2021/08/02 02:29:00;;;;;;;6.63;2.33;;;589.50;1792.00;;;;;;5095416;28;20476;-71
2021/08/02 02:31:27;;;;;;;3.60;2.20;;;589.60;1792.00;;;;;;5113744;28;20053;-80
2021/08/02 02:33:57;;;;;;;4.82;2.78;;;589.70;1792.00;;;;;;5113677;28;20399;-71
2021/08/02 02:36:23;;;;;;;2.60;2.25;;;589.60;1792.00;;;;;;5113717;28;20472;-71
2021/08/02 02:38:50;;;;;;;4.40;2.17;;;589.50;1792.00;;;;;;5095296;28;20146;-79
2021/08/02 02:41:22;;;;;;;3.40;2.42;;;589.40;1817.60;;;;;;5113654;28;20094;-79
2021/08/02 02:43:49;;;;;;;4.28;2.53;;;589.40;1792.00;;;;;;5113592;28;20111;-79
2021/08/02 02:46:17;;;;;;;5.13;2.60;;;589.30;1817.60;;;;;;5113627;28;20065;-79
2021/08/02 02:48:45;;;;;;;3.17;2.17;;;589.30;1817.60;;;;;;5113453;28;20049;-71
2021/08/02 02:51:12;;;;;;;5.78;2.20;;;589.40;1792.00;;;;;;5113540;28;20016;-79
2021/08/02 02:53:42;;;;;;;6.32;2.13;;;589.40;1792.00;;;;;;5113645;28;20032;-71
2021/08/02 02:56:11;;;;;;;4.57;1.90;;;589.40;1792.00;;;;;;5113886;28;20098;-80
2021/08/02 02:58:39;;;;;;;3.88;2.13;;;589.50;1766.40;;;;;;5113460;28;20487;-71
2021/08/02 03:01:06;;;;;;;2.95;2.33;;;589.50;1766.40;;;;;;5113546;28;20023;-71
2021/08/02 03:03:37;;;;;;;3.65;2.22;;;589.50;1766.40;;;;;;5113543;28;20038;-71
2021/08/02 03:06:06;;;;;;;3.97;1.90;;;589.50;1766.40;;;;;;5113265;28;20040;-71
2021/08/02 03:08:34;;;;;;;5.50;2.33;;;589.40;1766.40;;;;;;5098183;28;20046;-74
2021/08/02 03:11:02;;;;;;;2.63;2.05;;;589.40;1766.40;;;;;;5117381;28;20035;-80
2021/08/02 03:13:28;;;;;;;4.78;2.25;;;589.40;1740.80;;;;;;5117234;28;20019;-78
2021/08/02 03:15:54;;;;;;;2.80;2.10;;;589.40;1740.80;;;;;;5117234;28;20472;-71
2021/08/02 03:18:20;;;;;;;6.93;1.90;;;589.20;1766.40;;;;;;5117294;28;20028;-80
2021/08/02 03:20:46;;;;;;;3.70;2.42;;;589.30;1766.40;;;;;;5098957;28;20429;-78
2021/08/02 03:23:26;;;;;;;5.10;2.30;;;589.10;1792.00;;;;;;5117050;28;20019;-79
2021/08/02 03:26:24;;;;;;;5.53;2.38;;;589.10;1792.00;;;;;;5098798;28;20602;-71
2021/08/02 03:29:02;;;;;;;2.10;1.90;;;589.10;1792.00;;;;;;5101113;28;20119;-79
2021/08/02 03:31:33;;;;;;;3.47;2.15;;;589.00;1792.00;;;;;;5116931;28;20022;-71
2021/08/02 03:34:01;;;;;;;4.70;2.35;;;589.00;1792.00;;;;;;5116949;28;20024;-79
2021/08/02 03:36:28;;;;;;;6.28;2.25;;;588.90;1817.60;;;;;;5116736;28;20028;-80
2021/08/02 03:38:55;;;;;;;4.78;1.90;;;564.10;1817.60;;;;;;5117197;28;20032;-70
2021/08/02 03:41:22;;;;;;;4.32;2.33;;;564.00;1843.20;;;;;;5117000;28;20019;-79
2021/08/02 03:43:49;;;;;;;3.40;2.20;;;564.10;1817.60;;;;;;5116944;28;20028;-80
2021/08/02 03:46:17;;;;;;;3.33;2.30;;;564.10;1817.60;;;;;;5116631;28;20072;-79
2021/08/02 03:48:44;;;;;;;5.82;2.15;;;588.80;1817.60;;;;;;5117014;28;20430;-71
2021/08/02 03:51:10;;;;;;;4.65;2.58;;;588.80;1792.00;;;;;;5116505;28;20020;-70
2021/08/02 03:53:49;;;;;;;5.07;2.30;;;588.80;1792.00;;;;;;5116492;28;20047;-70
2021/08/02 03:56:16;;;;;;;4.03;2.78;;;588.80;1792.00;;;;;;5116693;28;20064;-78
2021/08/02 03:58:42;;;;;;;3.15;2.30;;;588.80;1792.00;;;;;;5116333;28;20035;-79
2021/08/02 04:01:09;;;;;;;4.00;2.42;;;588.80;1817.60;;;;;;5098027;28;20064;-78
2021/08/02 04:03:35;;;;;;;4.18;2.10;;;588.80;1792.00;;;;;;5116362;28;20049;-71
2021/08/02 04:06:02;;;;;;;6.28;2.60;;;588.80;1792.00;;;;;;5097760;28;20027;-70
2021/08/02 04:08:28;;;;;;;5.68;2.80;;;588.90;1792.00;;;;;;5116172;28;20059;-80
2021/08/02 04:10:55;;;;;;;4.22;2.70;;;588.80;1792.00;;;;;;5116185;28;20051;-71
2021/08/02 04:13:21;;;;;;;3.35;2.20;;;564.10;1792.00;;;;;;5116080;28;20020;-78
2021/08/02 04:15:47;;;;;;;4.68;2.30;;;564.10;1817.60;;;;;;5116076;28;20051;-70
2021/08/02 04:18:13;;;;;;;5.97;2.40;;;588.80;1792.00;;;;;;5115797;28;20052;-71
2021/08/02 04:20:39;;;;;;;4.88;2.58;;;588.80;1792.00;;;;;;5115216;28;20035;-79
2021/08/02 04:23:05;;;;;;;6.72;2.50;;;588.80;1792.00;;;;;;5115898;28;20496;-70
2021/08/02 04:25:31;;;;;;;4.35;2.15;;;588.80;1792.00;;;;;;5115802;28;20028;-70
2021/08/02 04:27:57;;;;;;;4.07;2.28;;;588.80;1792.00;;;;;;5115902;28;20028;-70
2021/08/02 04:30:22;;;;;;;3.45;2.42;;;564.00;1817.60;;;;;;5115842;28;20023;-71
2021/08/02 04:32:48;;;;;;;6.88;2.40;;;564.00;1817.60;;;;;;5115502;28;20030;-74
2021/08/02 04:35:14;;;;;;;4.15;2.50;;;564.00;1817.60;;;;;;5115525;28;20521;-78
2021/08/02 04:37:40;;;;;;;4.15;2.17;;;563.90;1817.60;;;;;;5115597;28;20418;-70
2021/08/02 04:40:07;;;;;;;5.18;2.20;;;564.00;1817.60;;;;;;5115589;28;20020;-71
2021/08/02 04:42:37;;;;;;;4.68;2.17;;;564.10;1817.60;;;;;;5115353;28;20026;-76
2021/08/02 04:45:05;;;;;;;3.45;2.35;;;564.00;1817.60;;;;;;5115322;28;20468;-70
2021/08/02 04:47:45;;;;;;;2.65;2.30;;;564.10;1817.60;;;;;;5144538;27;20388;-78
2021/08/02 04:50:11;;;;;;;3.50;2.30;;;564.10;1792.00;;;;;;5111134;28;20031;-77
2021/08/02 04:52:37;;;;;;;3.78;2.13;;;588.80;1792.00;;;;;;5111117;28;20095;-78
2021/08/02 04:55:03;;;;;;;5.43;2.30;;;588.80;1766.40;;;;;;5111057;28;20094;-69
2021/08/02 04:57:29;;;;;;;3.38;1.88;;;588.80;1766.40;;;;;;5110906;28;20476;-73
2021/08/02 04:59:55;;;;;;;3.95;1.95;;;588.80;1766.40;;;;;;5110993;28;20026;-78
2021/08/02 05:02:21;;;;;;;6.13;2.20;;;588.90;1766.40;;;;;;5110914;28;20099;-75
2021/08/02 05:04:47;;;;;;;3.63;1.90;;;588.90;1740.80;;;;;;5110900;28;20020;-70
2021/08/02 05:07:12;;;;;;;2.90;1.80;;;588.90;1766.40;;;;;;5110726;28;20046;-69
2021/08/02 05:09:38;;;;;;;4.10;2.20;;;589.00;1740.80;;;;;;5109634;28;20023;-70
2021/08/02 05:12:04;;;;;;;3.35;2.13;;;588.90;1740.80;;;;;;5109562;28;20024;-79
2021/08/02 05:14:30;;;;;;;4.00;2.30;;;588.90;1740.80;;;;;;5110771;28;20030;-77
2021/08/02 05:16:56;;;;;;;4.18;2.00;;;588.90;1766.40;;;;;;5110843;28;20024;-79
2021/08/02 05:19:22;;;;;;;2.70;1.73;;;588.90;1740.80;;;;;;5110717;28;20049;-78
2021/08/02 05:21:48;;;;;;;3.60;2.00;;;588.90;1740.80;;;;;;5110668;28;20031;-69
2021/08/02 05:24:14;;;;;;;2.80;2.40;;;589.00;1740.80;;;;;;5111182;28;20375;-78
2021/08/02 05:26:39;;;;;;;6.50;2.17;;;589.10;1740.80;;;;;;5110510;28;20035;-79
2021/08/02 05:29:05;;;;;;;7.22;2.33;;;589.00;1740.80;;;;;;5109312;28;20034;-76
2021/08/02 05:31:31;;;;;;;346.73;25.27;;;589.10;1715.20;;;;;;5110692;28;20553;-71
2021/08/02 05:33:57;;;;;;;27.73;3.70;;;589.00;1740.80;;;;;;5109940;28;20018;-72
2021/08/02 05:36:23;;;;;;;4.68;2.13;;;589.00;1740.80;;;;;;5110175;28;20082;-69
2021/08/02 05:38:48;;;;;;;7.55;2.35;;;589.00;1740.80;;;;;;5109920;28;20028;-70
2021/08/02 05:41:14;;;;;;;29.90;2.45;;;589.00;1715.20;;;;;;5109500;28;20445;-69
2021/08/02 05:43:40;;;;;;;20.98;3.28;;;589.00;1740.80;;;;;;5109685;28;20035;-70
2021/08/02 05:46:06;;;;;;;2.78;2.08;;;589.00;1715.20;;;;;;5107898;28;20443;-69
2021/08/02 05:48:32;;;;;;;3.08;1.90;;;588.90;1740.80;;;;;;5109387;28;20104;-69
2021/08/02 05:50:58;;;;;;;5.43;2.30;;;589.00;1715.20;;;;;;5109938;28;20016;-70
2021/08/02 05:53:24;;;;;;;5.82;2.20;;;589.00;1715.20;;;;;;5108073;28;20077;-69
2021/08/02 05:55:50;;;;;;;5.88;2.42;;;589.00;1715.20;;;;;;5108686;28;20375;-69
2021/08/02 05:58:15;;;;;;;6.05;2.22;;;589.00;1715.20;;;;;;5101001;28;20027;-68
2021/08/02 06:00:41;;;;;;;5.50;2.58;;;589.00;1689.60;;;;;;5096032;28;20422;-69
2021/08/02 06:03:07;;;;;;;5.00;1.95;;;589.00;1689.60;;;;;;5095808;28;20548;-69
2021/08/02 06:05:33;;;;;;;3.00;1.70;;;589.00;1715.20;;;;;;5094602;28;20118;-68
2021/08/02 06:07:59;;;;;;;4.13;1.90;;;589.10;1689.60;;;;;;5095826;28;20377;-68
2021/08/02 06:10:25;;;;;;;3.45;2.05;;;589.10;1689.60;;;;;;5095835;28;20043;-69
2021/08/02 06:12:51;;;;;;;3.92;2.05;;;589.30;1689.60;;;;;;5095728;28;20365;-68
2021/08/02 06:15:17;;;;;;;4.25;2.00;;;589.30;1689.60;;;;;;5095712;28;20016;-69
2021/08/02 06:17:43;;;;;;;4.28;1.77;;;589.30;1664.00;;;;;;5095584;28;20020;-68
2021/08/02 06:20:10;;;;;;;12.00;2.35;;;589.20;1689.60;;;;;;5095675;28;20117;-68
2021/08/02 06:22:35;;;;;;;5.05;2.30;;;589.20;1689.60;;;;;;5096230;28;20020;-69
2021/08/02 06:25:02;;;;;;;4.10;2.08;;;589.30;1689.60;;;;;;5095542;28;20031;-72
2021/08/02 06:27:30;;;;;;;10.75;2.38;;;589.40;1689.60;;;;;;5095350;28;20067;-70
2021/08/02 06:30:00;;;;;;;5.00;2.00;;;589.40;1664.00;;;;;;5094031;28;20027;-70
2021/08/02 06:32:27;;;;;;;10.02;2.40;;;589.30;1689.60;;;;;;5094422;28;20480;-68
2021/08/02 06:34:53;;;;;;;3.17;2.10;;;589.40;1689.60;;;;;;5095623;28;20028;-71
2021/08/02 06:37:22;;;;;;;11.57;2.08;;;589.50;1664.00;;;;;;5095858;28;20073;-68
2021/08/02 06:39:48;;;;;;;7.30;2.28;;;589.60;1664.00;;;;;;5095519;28;20035;-77
2021/08/02 06:42:14;;;;;;;3.60;1.90;;;614.40;1638.40;;;;;;5090935;28;20024;-75
2021/08/02 06:44:41;;;;;;;5.18;2.00;;;614.40;1638.40;;;;;;5095129;28;20111;-77
2021/08/02 06:47:07;;;;;;;5.10;2.00;;;614.40;1612.80;;;;;;5093424;28;20048;-79
2021/08/02 06:49:34;;;;;;;5.57;2.22;;;614.50;1612.80;;;;;;5095260;28;20028;-69
2021/08/02 06:51:59;;;;;;;5.72;2.45;;;614.60;1612.80;;;;;;5095277;28;20329;-68
2021/08/02 06:54:25;;;;;;;32.35;3.45;;;614.70;1612.80;;;;;;5095292;28;20107;-69
2021/08/02 06:56:51;;;;;;;11.13;2.20;;;614.80;1612.80;;;;;;5095460;28;20081;-70
2021/08/02 06:59:17;;;;;;;5.65;2.08;;;614.70;1587.20;;;;;;5093849;28;20125;-69
2021/08/02 07:01:43;;;;;;;4.90;2.10;;;614.80;1587.20;;;;;;5095077;28;20016;-68
2021/08/02 07:04:09;;;;;;;5.68;2.22;;;614.90;1612.80;;;;;;5095095;28;20028;-69
2021/08/02 07:06:35;;;;;;;6.55;2.17;;;615.00;1587.20;;;;;;5095822;28;20047;-69
2021/08/02 07:09:01;;;;;;;3.30;2.20;;;615.00;1587.20;;;;;;5094675;28;20027;-69
2021/08/02 07:11:27;;;;;;;7.65;1.98;;;614.90;1587.20;;;;;;5094742;28;20024;-76
2021/08/02 07:13:54;;;;;;;8.15;1.92;;;614.90;1587.20;;;;;;5094668;28;20043;-69
2021/08/02 07:16:21;;;;;;;4.57;2.00;;;615.00;1587.20;;;;;;5094341;28;20105;-69
2021/08/02 07:18:47;;;;;;;3.42;2.40;;;615.10;1561.60;;;;;;5094062;28;20034;-68
2021/08/02 07:21:13;;;;;;;56.30;4.60;;;615.10;1561.60;;;;;;5094002;28;20020;-70
2021/08/02 07:23:39;;;;;;;16.75;3.15;;;615.00;1587.20;;;;;;5094583;28;20032;-68
2021/08/02 07:26:08;;;;;;;11.25;2.30;;;615.00;1587.20;;;;;;5094734;28;20024;-69
2021/08/02 07:28:34;;;;;;;6.15;2.35;;;615.10;1561.60;;;;;;5094793;28;20020;-69
2021/08/02 07:31:00;;;;;;;6.10;1.80;;;615.10;1561.60;;;;;;5094710;28;20024;-68
2021/08/02 07:33:26;;;;;;;7.43;1.80;;;615.20;1536.00;;;;;;5094917;28;20019;-68
2021/08/02 07:35:51;;;;;;;7.60;3.10;;;615.20;1536.00;;;;;;5094451;28;20039;-71
2021/08/02 07:38:17;;;;;;;9.55;2.25;;;615.30;1536.00;;;;;;5094014;28;20028;-69
2021/08/02 07:40:43;;;;;;;3.35;1.92;;;640.10;1510.40;;;;;;5092973;28;20043;-69
2021/08/02 07:43:09;;;;;;;3.90;2.05;;;615.30;1536.00;;;;;;5092959;28;20024;-68
2021/08/02 07:45:35;;;;;;;62.42;5.78;;;615.30;1536.00;;;;;;5093860;28;20028;-68
2021/08/02 07:48:01;;;;;;;7.93;2.42;;;615.20;1510.40;;;;;;5094291;28;20024;-69
2021/08/02 07:50:28;;;;;;;3.67;1.85;;;615.30;1510.40;;;;;;5094229;28;20024;-76
2021/08/02 07:52:54;;;;;;;2.85;1.60;;;615.30;1484.80;;;;;;5094291;28;20090;-77
2021/08/02 07:55:20;;;;;;;7.68;1.90;;;615.30;1484.80;;;;;;5092745;28;20028;-69
2021/08/02 07:57:46;;;;;;;4.28;1.80;;;640.00;1510.40;;;;;;5093988;28;20056;-69
2021/08/02 08:00:16;;;;;;;5.20;1.42;;;640.10;1484.80;;;;;;5093954;28;20515;-76
2021/08/02 08:02:43;;;;;;;4.38;2.10;;;640.10;1484.80;;;;;;5094231;28;20038;-69
2021/08/02 08:05:10;;;;;;;3.30;1.52;;;640.10;1484.80;;;;;;5093961;28;20030;-75
2021/08/02 08:07:44;;;;;;;8.40;1.70;;;640.20;1459.20;;;;;;5093823;28;20037;-73
2021/08/02 08:10:12;;;;;;;8.25;1.90;;;640.20;1484.80;;;;;;5092564;28;20103;-76
2021/08/02 08:12:38;;;;;;;263.77;24.58;;;640.30;1459.20;;;;;;5093690;28;20031;-77
2021/08/02 08:15:05;;;;;;;33.60;3.85;;;640.50;1433.60;;;;;;5092857;28;20103;-71
2021/08/02 08:17:30;;;;;;;3.13;1.58;;;640.50;1433.60;;;;;;5092497;28;20024;-69
2021/08/02 08:19:56;;;;;;;12.57;2.10;;;640.60;1433.60;;;;;;5092309;28;20085;-69
2021/08/02 08:22:22;;;;;;;5.47;1.48;;;640.60;1433.60;;;;;;5090754;28;20071;-70
2021/08/02 08:24:49;;;;;;;3.85;1.73;;;640.60;1433.60;;;;;;5091368;28;20063;-75
2021/08/02 08:27:16;;;;;;;2.35;1.40;;;640.60;1408.00;;;;;;5091676;28;20028;-73
2021/08/02 08:29:42;;;;;;;7.60;1.95;;;640.70;1408.00;;;;;;5088914;28;20081;-77
2021/08/02 08:32:08;;;;;;;8.65;1.30;;;640.70;1433.60;;;;;;5091399;28;20058;-72
2021/08/02 08:34:34;;;;;;;7.22;2.20;;;640.70;1382.40;;;;;;5091549;28;20095;-74
2021/08/02 08:37:00;;;;;;;12.77;1.77;;;640.60;1382.40;;;;;;5091591;28;20084;-77
2021/08/02 08:39:25;;;;;;;5.00;1.70;;;640.70;1382.40;;;;;;5092261;28;20016;-77
2021/08/02 08:41:51;;;;;;;2.30;1.33;;;640.70;1382.40;;;;;;5091609;28;20024;-76
2021/08/02 08:44:20;;;;;;;1.83;1.38;;;640.70;1356.80;;;;;;5092191;28;20012;-75
2021/08/02 08:46:46;;;;;;;7.20;1.80;;;640.70;1382.40;;;;;;5088698;28;20123;-78
2021/08/02 08:49:12;;;;;;;3.95;1.58;;;640.60;1408.00;;;;;;5091977;28;20020;-78
2021/08/02 08:51:42;;;;;;;3.25;1.58;;;640.60;1408.00;;;;;;5092429;28;20024;-74
2021/08/02 08:54:08;;;;;;;5.20;1.60;;;640.70;1408.00;;;;;;5091597;28;20112;-74
2021/08/02 08:56:34;;;;;;;3.35;1.63;;;640.80;1382.40;;;;;;5092477;28;20016;-77
2021/08/02 08:59:00;;;;;;;25.05;2.42;;;640.70;1382.40;;;;;;5093240;28;20031;-74
2021/08/02 09:01:27;;;;;;;2.22;1.35;;;640.80;1408.00;;;;;;5093372;28;20024;-75
2021/08/02 09:03:54;;;;;;;7.80;2.40;;;640.80;1382.40;;;;;;5092766;28;20032;-70
2021/08/02 09:06:20;;;;;;;10.43;1.55;;;640.80;1382.40;;;;;;5092981;28;20545;-70
2021/08/02 09:08:46;;;;;;;19.23;1.90;;;640.80;1382.40;;;;;;5092683;28;20052;-70
2021/08/02 09:11:26;;;;;;;11.00;1.95;;;640.80;1382.40;;;;;;5093203;28;20027;-71
2021/08/02 09:13:54;;;;;;;4.65;1.55;;;665.60;1433.60;;;;;;5092804;28;20476;-72
2021/08/02 09:16:24;;;;;;;3.60;1.42;;;665.60;1408.00;;;;;;5091651;28;20063;-71
2021/08/02 09:18:59;;;;;;;3.83;1.30;;;665.60;1433.60;;;;;;5093126;28;20027;-78
2021/08/02 09:21:27;;;;;;;2.13;1.30;;;665.60;1408.00;;;;;;5092921;28;20020;-70
2021/08/02 09:23:55;;;;;;;10.82;2.25;;;665.70;1408.00;;;;;;5092968;28;20016;-71
2021/08/02 09:26:32;;;;;;;3.17;1.13;;;665.70;1408.00;;;;;;5092314;28;20111;-69
2021/08/02 09:28:58;;;;;;;5.53;1.25;;;665.70;1408.00;;;;;;5092984;28;20051;-70
2021/08/02 09:31:35;;;;;;;8.70;1.40;;;665.70;1408.00;;;;;;5092517;28;20460;-74
2021/08/02 09:34:05;;;;;;;14.40;2.17;;;665.60;1382.40;;;;;;5095861;28;20045;-74
2021/08/02 09:36:43;;;;;;;117.30;10.15;;;665.60;1408.00;;;;;;5096224;28;20025;-70
2021/08/02 09:39:11;;;;;;;4.65;1.20;;;665.60;1408.00;;;;;;5096731;28;20020;-70
2021/08/02 09:41:37;;;;;;;3.03;1.27;;;665.70;1382.40;;;;;;5096207;28;20122;-69
2021/08/02 09:44:05;;;;;;;14.82;1.92;;;665.70;1382.40;;;;;;5096680;28;20043;-70
2021/08/02 09:46:32;;;;;;;3.42;1.23;;;665.80;1382.40;;;;;;5095931;28;20051;-69
2021/08/02 09:49:04;;;;;;;1.95;0.98;;;665.80;1356.80;;;;;;5096246;28;20066;-72
2021/08/02 09:51:42;;;;;;;3.78;1.92;;;665.80;1331.20;;;;;;5096449;28;20070;-77
2021/08/02 09:54:09;;;;;;;8.90;1.50;;;665.80;1305.60;;;;;;5095499;28;20496;-75
2021/08/02 09:56:36;;;;;;;11.50;1.60;;;665.90;1305.60;;;;;;5094596;28;20377;-77
2021/08/02 09:59:02;;;;;;;10.30;1.50;;;665.90;1305.60;;;;;;5095685;28;20492;-69
2021/08/02 10:01:28;;;;;;;4.85;1.27;;;665.90;1356.80;;;;;;5096221;28;20119;-70
2021/08/02 10:03:54;;;;;;;15.10;1.60;;;666.00;1331.20;;;;;;5095957;28;20100;-69
2021/08/02 10:06:20;;;;;;;5.07;1.30;;;666.00;1331.20;;;;;;5096050;28;20060;-69
2021/08/02 10:08:46;;;;;;;7.78;1.88;;;666.00;1331.20;;;;;;5095750;28;20434;-70
2021/08/02 10:11:12;;;;;;;8.65;5.63;;;665.90;1356.80;;;;;;5096150;28;20024;-70
2021/08/02 10:13:42;;;;;;;6.00;1.33;;;665.90;1305.60;;;;;;5095851;28;20444;-69
2021/08/02 10:16:12;;;;;;;8.75;2.00;;;666.00;1331.20;;;;;;5095873;28;20031;-70
2021/08/02 10:18:38;;;;;;;5.22;1.10;;;666.10;1331.20;;;;;;5096094;28;20074;-69
2021/08/02 10:21:07;;;;;;;5.10;1.40;;;666.10;1331.20;;;;;;5095268;28;20024;-69
2021/08/02 10:23:33;;;;;;;11.18;1.83;;;666.20;1305.60;;;;;;5096126;28;20047;-69
2021/08/02 10:26:00;;;;;;;4.85;1.08;;;666.30;1280.00;;;;;;5094791;28;20028;-70
2021/08/02 10:28:26;;;;;;;6.90;1.58;;;666.30;1305.60;;;;;;5095473;28;20438;-69
2021/08/02 10:31:08;;;;;;;4.63;1.25;;;666.30;1305.60;;;;;;5095347;28;20487;-73
2021/08/02 10:33:38;;;;;;;3.45;1.13;;;666.30;1305.60;;;;;;5093816;28;20074;-78
2021/08/02 10:36:18;;;;;;;7.03;1.38;;;666.30;1305.60;;;;;;5093652;28;20028;-69
2021/08/02 10:38:46;;;;;;;8.52;1.27;;;666.40;1331.20;;;;;;5093556;28;20103;-77
2021/08/02 10:41:26;;;;;;;5.22;1.13;;;666.40;1280.00;;;;;;5091820;28;20379;-75
2021/08/02 10:43:53;;;;;;;4.25;1.70;;;666.50;1331.20;;;;;;5093553;28;20069;-72
2021/08/02 10:46:21;;;;;;;6.63;1.55;;;666.30;1280.00;;;;;;5093677;28;20052;-70
2021/08/02 10:48:48;;;;;;;2.75;1.13;;;691.20;1280.00;;;;;;5094486;28;20081;-70
2021/08/02 10:51:17;;;;;;;4.20;1.20;;;691.20;1280.00;;;;;;5095066;28;20051;-74
2021/08/02 10:53:44;;;;;;;11.18;1.50;;;691.20;1305.60;;;;;;5093646;28;20066;-73
2021/08/02 10:56:10;;;;;;;10.38;1.73;;;691.30;1305.60;;;;;;5094990;28;20027;-71
2021/08/02 10:58:40;;;;;;;8.13;1.67;;;691.30;1280.00;;;;;;5093928;28;20016;-71
2021/08/02 11:01:11;;;;;;;10.02;1.75;;;691.30;1280.00;;;;;;5094852;28;20384;-71
2021/08/02 11:03:40;;;;;;;7.10;1.58;;;691.30;1356.80;;;;;;5093367;28;20017;-70
2021/08/02 11:06:11;;;;;;;8.15;1.50;;;691.30;1331.20;;;;;;5094093;28;20032;-72
2021/08/02 11:08:51;;;;;;;7.85;1.50;;;691.40;1305.60;;;;;;5100057;28;20097;-72
2021/08/02 11:11:23;;;;;;;159.75;11.80;;;691.40;1280.00;;;;;;5100777;28;20016;-72
2021/08/02 11:13:50;;;;;;;31.52;2.88;;;691.40;1254.40;;;;;;5102502;28;20012;-72
2021/08/02 11:16:17;;;;;;;27.45;2.38;;;691.40;1305.60;;;;;;5103548;28;20038;-71
2021/08/02 11:18:45;;;;;;;17.35;2.92;;;691.40;1356.80;;;;;;5103818;28;20020;-70
2021/08/02 11:21:25;;;;;;;12.55;1.95;;;691.50;1356.80;;;;;;5101804;28;20016;-71
2021/08/02 11:23:54;;;;;;;9.43;1.65;;;691.60;1280.00;;;;;;5102375;28;20016;-70
2021/08/02 11:26:22;;;;;;;2.60;1.20;;;691.60;1280.00;;;;;;5102902;28;20036;-71
2021/08/02 11:28:54;;;;;;;8.32;2.47;;;691.60;1280.00;;;;;;5104178;28;20020;-72
2021/08/02 11:31:24;;;;;;;4.40;1.20;;;691.60;1382.40;;;;;;5100777;28;20039;-73
2021/08/02 11:33:51;;;;;;;8.23;1.50;;;691.70;1280.00;;;;;;5104592;28;20252;-72
2021/08/02 11:36:19;;;;;;;5.38;1.40;;;691.70;1280.00;;;;;;5102295;28;20016;-71
2021/08/02 11:38:46;;;;;;;1.67;1.08;;;691.70;1280.00;;;;;;5103297;28;20073;-71
2021/08/02 11:41:27;;;;;;;14.93;2.05;;;691.70;1280.00;;;;;;5102056;28;20491;-72
2021/08/02 11:43:53;;;;;;;9.82;1.95;;;691.80;1305.60;;;;;;5100184;28;20027;-72
2021/08/02 11:46:19;;;;;;;8.80;1.60;;;691.80;1305.60;;;;;;5101760;28;20038;-74
2021/08/02 11:48:46;;;;;;;2.72;1.48;;;691.80;1280.00;;;;;;5103060;28;20116;-73
2021/08/02 11:51:18;;;;;;;6.28;1.33;;;691.80;1254.40;;;;;;5100606;28;20023;-70
2021/08/02 11:53:43;;;;;;;81.47;6.35;;;691.80;1228.80;;;;;;5101490;28;20082;-77
2021/08/02 11:56:10;;;;;;;9.73;2.35;;;691.90;1254.40;;;;;;5101135;28;20024;-70
2021/08/02 11:58:40;;;;;;;2.92;1.23;;;691.90;1254.40;;;;;;5101424;28;20454;-73
2021/08/02 12:01:07;;;;;;;3.13;1.33;;;691.90;1254.40;;;;;;5101679;28;20319;-71
2021/08/02 12:03:33;;;;;;;4.65;1.15;;;691.90;1228.80;;;;;;5103546;28;20043;-72
2021/08/02 12:06:08;;;;;;;5.07;1.83;;;691.90;1228.80;;;;;;5100631;28;20454;-71
2021/08/02 12:08:35;;;;;;;16.60;2.13;;;691.90;1254.40;;;;;;5104420;28;20053;-71
2021/08/02 12:11:05;;;;;;;5.57;1.35;;;692.00;1254.40;;;;;;5101800;28;20067;-71
2021/08/02 12:13:42;;;;;;;20.67;1.92;;;692.00;1254.40;;;;;;5103615;28;20477;-70
2021/08/02 12:16:10;;;;;;;6.10;1.38;;;692.00;1280.00;;;;;;5102897;28;20031;-73
2021/08/02 12:18:36;;;;;;;4.32;1.65;;;692.10;1228.80;;;;;;5099120;28;20020;-76
2021/08/02 12:21:17;;;;;;;10.75;2.30;;;692.10;1228.80;;;;;;5101941;28;20054;-70
2021/08/02 12:23:43;;;;;;;8.75;2.10;;;692.10;1254.40;;;;;;5099374;28;20012;-72